sensor_id;sensor_type;location;lat;lon;timestamp;P1;durP1;ratioP1;P2;durP2;ratioP2
21804;SDS011;11064;47.102;15.452;2023-07-20T04:03:16;4.63;;;3.28;;
21804;SDS011;11064;47.102;15.452;2023-07-20T04:05:43;5.50;;;3.53;;
21804;SDS011;11064;47.102;15.452;2023-07-20T04:08:09;6.32;;;3.33;;
21804;SDS011;11064;47.102;15.452;2023-07-20T04:10:38;4.80;;;3.13;;
21804;SDS011;11064;47.102;15.452;2023-07-20T04:13:08;4.30;;;3.30;;
21804;SDS011;11064;47.102;15.452;2023-07-20T04:15:33;5.55;;;3.33;;
21804;SDS011;11064;47.102;15.452;2023-07-20T04:17:59;5.25;;;3.30;;
21804;SDS011;11064;47.102;15.452;2023-07-20T04:20:26;5.97;;;3.65;;
21804;SDS011;11064;47.102;15.452;2023-07-20T04:22:51;4.63;;;3.45;;
21804;SDS011;11064;47.102;15.452;2023-07-20T04:25:17;3.75;;;3.35;;
21804;SDS011;11064;47.102;15.452;2023-07-20T04:27:43;4.55;;;3.25;;
21804;SDS011;11064;47.102;15.452;2023-07-20T04:30:11;5.57;;;3.10;;
21804;SDS011;11064;47.102;15.452;2023-07-20T04:32:38;4.38;;;3.22;;
21804;SDS011;11064;47.102;15.452;2023-07-20T04:35:16;4.82;;;3.22;;
21804;SDS011;11064;47.102;15.452;2023-07-20T04:38:02;5.15;;;3.10;;
21804;SDS011;11064;47.102;15.452;2023-07-20T04:40:28;4.57;;;3.50;;
21804;SDS011;11064;47.102;15.452;2023-07-20T04:42:53;4.07;;;3.13;;
21804;SDS011;11064;47.102;15.452;2023-07-20T04:45:19;5.00;;;3.33;;
21804;SDS011;11064;47.102;15.452;2023-07-20T04:47:48;3.97;;;2.95;;
21804;SDS011;11064;47.102;15.452;2023-07-20T04:50:16;4.72;;;3.28;;
21804;SDS011;11064;47.102;15.452;2023-07-20T04:52:41;6.18;;;3.50;;
21804;SDS011;11064;47.102;15.452;2023-07-20T04:55:07;3.88;;;3.20;;
21804;SDS011;11064;47.102;15.452;2023-07-20T04:57:34;3.40;;;3.10;;
21804;SDS011;11064;47.102;15.452;2023-07-20T05:00:00;6.07;;;3.75;;
21804;SDS011;11064;47.102;15.452;2023-07-20T05:02:25;4.38;;;3.10;;
21804;SDS011;11064;47.102;15.452;2023-07-20T05:04:51;4.22;;;3.20;;
21804;SDS011;11064;47.102;15.452;2023-07-20T05:07:17;4.18;;;3.10;;
21804;SDS011;11064;47.102;15.452;2023-07-20T05:09:42;4.38;;;3.40;;
21804;SDS011;11064;47.102;15.452;2023-07-20T05:12:08;5.38;;;3.17;;
21804;SDS011;11064;47.102;15.452;2023-07-20T05:14:34;4.55;;;3.08;;
21804;SDS011;11064;47.102;15.452;2023-07-20T05:17:00;4.18;;;3.10;;
21804;SDS011;11064;47.102;15.452;2023-07-20T05:19:26;5.47;;;3.13;;
21804;SDS011;11064;47.102;15.452;2023-07-20T05:21:52;6.63;;;3.42;;
21804;SDS011;11064;47.102;15.452;2023-07-20T05:24:18;5.07;;;3.30;;
21804;SDS011;11064;47.102;15.452;2023-07-20T05:26:43;5.32;;;3.42;;
21804;SDS011;11064;47.102;15.452;2023-07-20T05:29:09;5.25;;;3.20;;
21804;SDS011;11064;47.102;15.452;2023-07-20T05:31:35;4.63;;;2.95;;
21804;SDS011;11064;47.102;15.452;2023-07-20T05:34:01;4.65;;;3.15;;
21804;SDS011;11064;47.102;15.452;2023-07-20T05:36:27;4.95;;;3.28;;
21804;SDS011;11064;47.102;15.452;2023-07-20T05:38:52;5.00;;;3.28;;
21804;SDS011;11064;47.102;15.452;2023-07-20T05:41:18;5.05;;;3.35;;
21804;SDS011;11064;47.102;15.452;2023-07-20T05:43:44;6.88;;;3.72;;
21804;SDS011;11064;47.102;15.452;2023-07-20T05:46:10;5.45;;;3.33;;
21804;SDS011;11064;47.102;15.452;2023-07-20T05:48:35;5.03;;;3.40;;
21804;SDS011;11064;47.102;15.452;2023-07-20T05:51:01;5.07;;;3.22;;
21804;SDS011;11064;47.102;15.452;2023-07-20T05:53:27;7.47;;;3.45;;
21804;SDS011;11064;47.102;15.452;2023-07-20T05:55:53;5.97;;;3.50;;
21804;SDS011;11064;47.102;15.452;2023-07-20T05:58:19;4.38;;;3.22;;
21804;SDS011;11064;47.102;15.452;2023-07-20T06:00:48;4.47;;;3.03;;
21804;SDS011;11064;47.102;15.452;2023-07-20T06:03:16;4.35;;;3.15;;
21804;SDS011;11064;47.102;15.452;2023-07-20T06:05:42;4.78;;;3.30;;
21804;SDS011;11064;47.102;15.452;2023-07-20T06:08:08;4.40;;;3.15;;
21804;SDS011;11064;47.102;15.452;2023-07-20T06:10:34;4.90;;;3.22;;
21804;SDS011;11064;47.102;15.452;2023-07-20T06:12:59;4.35;;;3.45;;
21804;SDS011;11064;47.102;15.452;2023-07-20T06:15:26;4.88;;;3.30;;
21804;SDS011;11064;47.102;15.452;2023-07-20T06:18:03;4.80;;;3.55;;
21804;SDS011;11064;47.102;15.452;2023-07-20T06:20:29;4.10;;;3.15;;
21804;SDS011;11064;47.102;15.452;2023-07-20T06:22:55;5.65;;;3.50;;
21804;SDS011;11064;47.102;15.452;2023-07-20T06:25:21;4.38;;;3.38;;
21804;SDS011;11064;47.102;15.452;2023-07-20T06:27:48;5.10;;;3.40;;
21804;SDS011;11064;47.102;15.452;2023-07-20T06:30:15;7.90;;;3.38;;
21804;SDS011;11064;47.102;15.452;2023-07-20T06:32:41;4.65;;;3.25;;
21804;SDS011;11064;47.102;15.452;2023-07-20T06:35:07;5.28;;;3.08;;
21804;SDS011;11064;47.102;15.452;2023-07-20T06:37:33;4.32;;;3.33;;
21804;SDS011;11064;47.102;15.452;2023-07-20T06:39:59;4.05;;;3.08;;
21804;SDS011;11064;47.102;15.452;2023-07-20T06:42:25;4.32;;;3.17;;
21804;SDS011;11064;47.102;15.452;2023-07-20T06:44:51;5.18;;;3.42;;
21804;SDS011;11064;47.102;15.452;2023-07-20T06:47:17;5.45;;;3.50;;
21804;SDS011;11064;47.102;15.452;2023-07-20T06:49:42;5.85;;;3.60;;
21804;SDS011;11064;47.102;15.452;2023-07-20T06:52:08;6.13;;;3.40;;
21804;SDS011;11064;47.102;15.452;2023-07-20T06:54:34;5.05;;;3.65;;
21804;SDS011;11064;47.102;15.452;2023-07-20T06:57:00;3.95;;;2.95;;
21804;SDS011;11064;47.102;15.452;2023-07-20T06:59:25;5.65;;;3.20;;
21804;SDS011;11064;47.102;15.452;2023-07-20T07:01:51;7.32;;;3.50;;
21804;SDS011;11064;47.102;15.452;2023-07-20T07:04:17;4.75;;;3.25;;
21804;SDS011;11064;47.102;15.452;2023-07-20T07:06:42;3.33;;;3.03;;
21804;SDS011;11064;47.102;15.452;2023-07-20T07:09:09;5.18;;;3.20;;
21804;SDS011;11064;47.102;15.452;2023-07-20T07:11:35;6.03;;;3.30;;
21804;SDS011;11064;47.102;15.452;2023-07-20T07:14:01;4.78;;;3.50;;
21804;SDS011;11064;47.102;15.452;2023-07-20T07:16:26;6.18;;;3.47;;
21804;SDS011;11064;47.102;15.452;2023-07-20T07:18:52;4.47;;;3.22;;
21804;SDS011;11064;47.102;15.452;2023-07-20T07:21:18;4.60;;;3.15;;
21804;SDS011;11064;47.102;15.452;2023-07-20T07:23:44;3.83;;;3.17;;
21804;SDS011;11064;47.102;15.452;2023-07-20T07:26:10;4.18;;;3.60;;
21804;SDS011;11064;47.102;15.452;2023-07-20T07:28:36;6.97;;;3.33;;
21804;SDS011;11064;47.102;15.452;2023-07-20T07:31:05;5.80;;;3.72;;
21804;SDS011;11064;47.102;15.452;2023-07-20T07:33:32;5.27;;;3.80;;
21804;SDS011;11064;47.102;15.452;2023-07-20T07:35:58;6.40;;;4.00;;
21804;SDS011;11064;47.102;15.452;2023-07-20T07:38:24;7.45;;;4.30;;
21804;SDS011;11064;47.102;15.452;2023-07-20T07:40:49;5.80;;;3.80;;
21804;SDS011;11064;47.102;15.452;2023-07-20T07:43:15;5.75;;;3.53;;
21804;SDS011;11064;47.102;15.452;2023-07-20T07:45:41;5.75;;;3.70;;
21804;SDS011;11064;47.102;15.452;2023-07-20T07:48:07;5.95;;;3.60;;
21804;SDS011;11064;47.102;15.452;2023-07-20T07:50:33;5.70;;;3.70;;
21804;SDS011;11064;47.102;15.452;2023-07-20T07:52:59;7.50;;;3.53;;
21804;SDS011;11064;47.102;15.452;2023-07-20T07:55:25;5.85;;;3.65;;
21804;SDS011;11064;47.102;15.452;2023-07-20T07:57:54;7.30;;;3.53;;
21804;SDS011;11064;47.102;15.452;2023-07-20T08:00:19;5.05;;;3.45;;
21804;SDS011;11064;47.102;15.452;2023-07-20T08:02:45;5.75;;;3.50;;
21804;SDS011;11064;47.102;15.452;2023-07-20T08:05:13;5.80;;;3.17;;
21804;SDS011;11064;47.102;15.452;2023-07-20T08:07:39;5.40;;;3.30;;
21804;SDS011;11064;47.102;15.452;2023-07-20T08:10:05;5.28;;;3.45;;
21804;SDS011;11064;47.102;15.452;2023-07-20T08:12:31;5.57;;;3.40;;
21804;SDS011;11064;47.102;15.452;2023-07-20T08:14:57;6.03;;;3.42;;
21804;SDS011;11064;47.102;15.452;2023-07-20T08:17:23;5.78;;;3.90;;
21804;SDS011;11064;47.102;15.452;2023-07-20T08:19:49;7.00;;;3.83;;
21804;SDS011;11064;47.102;15.452;2023-07-20T08:22:15;6.53;;;3.47;;
21804;SDS011;11064;47.102;15.452;2023-07-20T08:24:41;4.78;;;3.00;;
21804;SDS011;11064;47.102;15.452;2023-07-20T08:27:08;5.05;;;3.70;;
21804;SDS011;11064;47.102;15.452;2023-07-20T08:29:37;4.70;;;3.40;;
21804;SDS011;11064;47.102;15.452;2023-07-20T08:32:03;4.10;;;3.25;;
21804;SDS011;11064;47.102;15.452;2023-07-20T08:34:30;5.90;;;3.30;;
21804;SDS011;11064;47.102;15.452;2023-07-20T08:36:56;6.47;;;3.53;;
21804;SDS011;11064;47.102;15.452;2023-07-20T08:39:22;4.65;;;3.00;;
21804;SDS011;11064;47.102;15.452;2023-07-20T08:41:49;3.65;;;2.85;;
21804;SDS011;11064;47.102;15.452;2023-07-20T08:44:17;4.63;;;2.70;;
21804;SDS011;11064;47.102;15.452;2023-07-20T08:46:42;5.63;;;3.28;;
21804;SDS011;11064;47.102;15.452;2023-07-20T08:49:10;6.25;;;3.20;;
21804;SDS011;11064;47.102;15.452;2023-07-20T08:51:36;3.15;;;2.50;;
21804;SDS011;11064;47.102;15.452;2023-07-20T08:54:04;3.70;;;2.60;;
21804;SDS011;11064;47.102;15.452;2023-07-20T08:56:31;4.18;;;2.67;;
21804;SDS011;11064;47.102;15.452;2023-07-20T08:58:59;5.00;;;2.65;;
21804;SDS011;11064;47.102;15.452;2023-07-20T09:01:26;4.53;;;2.63;;
21804;SDS011;11064;47.102;15.452;2023-07-20T09:03:54;4.03;;;2.75;;
21804;SDS011;11064;47.102;15.452;2023-07-20T09:06:21;5.05;;;2.70;;
21804;SDS011;11064;47.102;15.452;2023-07-20T09:08:46;6.10;;;3.03;;
21804;SDS011;11064;47.102;15.452;2023-07-20T09:11:12;4.90;;;2.75;;
21804;SDS011;11064;47.102;15.452;2023-07-20T09:13:40;3.95;;;2.70;;
21804;SDS011;11064;47.102;15.452;2023-07-20T09:16:06;4.18;;;2.58;;
21804;SDS011;11064;47.102;15.452;2023-07-20T09:18:32;5.28;;;2.85;;
21804;SDS011;11064;47.102;15.452;2023-07-20T09:21:02;4.13;;;2.60;;
21804;SDS011;11064;47.102;15.452;2023-07-20T09:23:33;3.00;;;2.58;;
21804;SDS011;11064;47.102;15.452;2023-07-20T09:26:00;3.50;;;2.72;;
21804;SDS011;11064;47.102;15.452;2023-07-20T09:28:26;3.47;;;2.45;;
21804;SDS011;11064;47.102;15.452;2023-07-20T09:30:53;3.53;;;2.83;;
21804;SDS011;11064;47.102;15.452;2023-07-20T09:33:22;2.78;;;2.40;;
21804;SDS011;11064;47.102;15.452;2023-07-20T09:35:48;4.22;;;2.42;;
21804;SDS011;11064;47.102;15.452;2023-07-20T09:38:14;8.05;;;2.85;;
21804;SDS011;11064;47.102;15.452;2023-07-20T09:40:41;4.10;;;2.55;;
21804;SDS011;11064;47.102;15.452;2023-07-20T09:43:09;5.10;;;2.70;;
21804;SDS011;11064;47.102;15.452;2023-07-20T09:45:35;3.70;;;2.47;;
21804;SDS011;11064;47.102;15.452;2023-07-20T09:48:08;5.43;;;2.75;;
21804;SDS011;11064;47.102;15.452;2023-07-20T09:50:56;5.32;;;3.00;;
21804;SDS011;11064;47.102;15.452;2023-07-20T09:53:21;2.72;;;2.33;;
21804;SDS011;11064;47.102;15.452;2023-07-20T09:55:50;3.15;;;2.45;;
21804;SDS011;11064;47.102;15.452;2023-07-20T09:58:17;8.15;;;3.00;;
21804;SDS011;11064;47.102;15.452;2023-07-20T10:00:44;4.88;;;2.70;;
21804;SDS011;11064;47.102;15.452;2023-07-20T10:03:19;5.32;;;2.58;;
21804;SDS011;11064;47.102;15.452;2023-07-20T10:05:47;20.23;;;5.78;;
21804;SDS011;11064;47.102;15.452;2023-07-20T10:08:28;4.35;;;2.55;;
21804;SDS011;11064;47.102;15.452;2023-07-20T10:10:56;5.15;;;2.80;;
21804;SDS011;11064;47.102;15.452;2023-07-20T10:13:27;3.60;;;2.80;;
21804;SDS011;11064;47.102;15.452;2023-07-20T10:16:02;4.75;;;2.75;;
21804;SDS011;11064;47.102;15.452;2023-07-20T10:21:18;4.43;;;3.20;;
21804;SDS011;11064;47.102;15.452;2023-07-20T10:23:48;6.25;;;3.30;;
21804;SDS011;11064;47.102;15.452;2023-07-20T10:26:14;6.63;;;3.58;;
21804;SDS011;11064;47.102;15.452;2023-07-20T10:28:40;5.45;;;3.20;;
21804;SDS011;11064;47.102;15.452;2023-07-20T10:31:07;7.75;;;3.60;;
21804;SDS011;11064;47.102;15.452;2023-07-20T10:33:35;5.45;;;3.30;;
21804;SDS011;11064;47.102;15.452;2023-07-20T10:36:03;4.72;;;3.47;;
21804;SDS011;11064;47.102;15.452;2023-07-20T10:43:44;7.32;;;3.80;;
21804;SDS011;11064;47.102;15.452;2023-07-20T10:46:13;5.78;;;3.90;;
21804;SDS011;11064;47.102;15.452;2023-07-20T10:51:27;6.28;;;3.92;;
21804;SDS011;11064;47.102;15.452;2023-07-20T10:53:57;6.35;;;4.00;;
21804;SDS011;11064;47.102;15.452;2023-07-20T10:59:00;4.60;;;3.60;;
21804;SDS011;11064;47.102;15.452;2023-07-20T11:01:42;7.65;;;3.72;;
21804;SDS011;11064;47.102;15.452;2023-07-20T11:04:10;5.63;;;3.60;;
21804;SDS011;11064;47.102;15.452;2023-07-20T11:06:36;5.68;;;3.63;;
21804;SDS011;11064;47.102;15.452;2023-07-20T11:11:33;3.97;;;3.22;;
21804;SDS011;11064;47.102;15.452;2023-07-20T11:14:02;5.95;;;3.60;;
21804;SDS011;11064;47.102;15.452;2023-07-20T11:16:33;5.43;;;3.45;;
21804;SDS011;11064;47.102;15.452;2023-07-20T11:19:06;4.78;;;3.15;;
21804;SDS011;11064;47.102;15.452;2023-07-20T11:21:40;5.60;;;3.13;;
21804;SDS011;11064;47.102;15.452;2023-07-20T11:24:07;5.45;;;3.10;;
21804;SDS011;11064;47.102;15.452;2023-07-20T11:26:40;5.80;;;3.20;;
21804;SDS011;11064;47.102;15.452;2023-07-20T11:29:10;4.78;;;3.00;;
21804;SDS011;11064;47.102;15.452;2023-07-20T11:31:38;4.97;;;3.05;;
21804;SDS011;11064;47.102;15.452;2023-07-20T11:34:29;4.85;;;2.92;;
21804;SDS011;11064;47.102;15.452;2023-07-20T11:36:56;6.80;;;2.90;;
21804;SDS011;11064;47.102;15.452;2023-07-20T11:39:22;4.65;;;2.92;;
21804;SDS011;11064;47.102;15.452;2023-07-20T11:41:51;4.22;;;3.03;;
21804;SDS011;11064;47.102;15.452;2023-07-20T11:44:18;4.82;;;2.90;;
21804;SDS011;11064;47.102;15.452;2023-07-20T11:46:46;6.25;;;2.95;;
21804;SDS011;11064;47.102;15.452;2023-07-20T11:49:12;5.70;;;3.20;;
21804;SDS011;11064;47.102;15.452;2023-07-20T11:51:38;5.00;;;3.30;;
21804;SDS011;11064;47.102;15.452;2023-07-20T11:54:06;3.47;;;2.92;;
21804;SDS011;11064;47.102;15.452;2023-07-20T11:56:33;5.85;;;3.00;;
21804;SDS011;11064;47.102;15.452;2023-07-20T11:59:00;3.95;;;3.10;;
21804;SDS011;11064;47.102;15.452;2023-07-20T12:01:29;3.83;;;3.00;;
21804;SDS011;11064;47.102;15.452;2023-07-20T12:04:00;7.28;;;3.40;;
21804;SDS011;11064;47.102;15.452;2023-07-20T12:06:28;5.30;;;3.05;;
21804;SDS011;11064;47.102;15.452;2023-07-20T12:08:55;4.00;;;2.67;;
21804;SDS011;11064;47.102;15.452;2023-07-20T12:11:35;4.05;;;2.60;;
21804;SDS011;11064;47.102;15.452;2023-07-20T12:14:06;3.42;;;2.47;;
21804;SDS011;11064;47.102;15.452;2023-07-20T12:16:33;2.75;;;2.30;;
21804;SDS011;11064;47.102;15.452;2023-07-20T12:19:07;3.42;;;2.50;;
21804;SDS011;11064;47.102;15.452;2023-07-20T12:21:34;5.47;;;2.60;;
21804;SDS011;11064;47.102;15.452;2023-07-20T12:24:05;2.75;;;2.17;;
21804;SDS011;11064;47.102;15.452;2023-07-20T12:26:33;4.30;;;2.47;;
21804;SDS011;11064;47.102;15.452;2023-07-20T12:28:59;2.75;;;2.33;;
21804;SDS011;11064;47.102;15.452;2023-07-20T12:31:25;3.83;;;2.42;;
21804;SDS011;11064;47.102;15.452;2023-07-20T12:33:53;3.55;;;2.67;;
21804;SDS011;11064;47.102;15.452;2023-07-20T12:36:39;4.00;;;2.85;;
21804;SDS011;11064;47.102;15.452;2023-07-20T12:39:05;3.22;;;2.50;;
21804;SDS011;11064;47.102;15.452;2023-07-20T12:41:31;8.80;;;2.80;;
21804;SDS011;11064;47.102;15.452;2023-07-20T12:43:56;4.47;;;2.65;;
21804;SDS011;11064;47.102;15.452;2023-07-20T12:46:23;5.90;;;2.67;;
21804;SDS011;11064;47.102;15.452;2023-07-20T12:48:49;4.05;;;2.65;;
21804;SDS011;11064;47.102;15.452;2023-07-20T12:51:15;3.67;;;2.80;;
21804;SDS011;11064;47.102;15.452;2023-07-20T12:53:41;5.32;;;3.00;;
21804;SDS011;11064;47.102;15.452;2023-07-20T12:56:06;12.35;;;3.50;;
21804;SDS011;11064;47.102;15.452;2023-07-20T12:58:32;7.78;;;3.40;;
21804;SDS011;11064;47.102;15.452;2023-07-20T13:00:58;4.45;;;3.03;;
21804;SDS011;11064;47.102;15.452;2023-07-20T13:03:24;6.35;;;3.42;;
21804;SDS011;11064;47.102;15.452;2023-07-20T13:05:50;6.10;;;3.17;;
21804;SDS011;11064;47.102;15.452;2023-07-20T13:08:16;5.25;;;3.25;;
21804;SDS011;11064;47.102;15.452;2023-07-20T13:10:41;3.90;;;3.47;;
21804;SDS011;11064;47.102;15.452;2023-07-20T13:13:08;6.75;;;3.20;;
21804;SDS011;11064;47.102;15.452;2023-07-20T13:15:40;5.90;;;2.83;;
21804;SDS011;11064;47.102;15.452;2023-07-20T13:18:08;3.38;;;2.60;;
21804;SDS011;11064;47.102;15.452;2023-07-20T13:20:33;5.45;;;2.42;;
21804;SDS011;11064;47.102;15.452;2023-07-20T13:22:59;2.70;;;2.13;;
21804;SDS011;11064;47.102;15.452;2023-07-20T13:25:25;2.92;;;2.10;;
21804;SDS011;11064;47.102;15.452;2023-07-20T13:27:51;2.60;;;2.00;;
21804;SDS011;11064;47.102;15.452;2023-07-20T13:30:17;6.15;;;2.28;;
21804;SDS011;11064;47.102;15.452;2023-07-20T13:32:43;3.72;;;2.05;;
21804;SDS011;11064;47.102;15.452;2023-07-20T13:35:10;3.25;;;1.95;;
21804;SDS011;11064;47.102;15.452;2023-07-20T13:37:36;2.95;;;2.20;;
21804;SDS011;11064;47.102;15.452;2023-07-20T13:40:02;2.38;;;2.08;;
21804;SDS011;11064;47.102;15.452;2023-07-20T13:42:30;4.50;;;2.08;;
21804;SDS011;11064;47.102;15.452;2023-07-20T13:44:57;3.28;;;2.20;;
21804;SDS011;11064;47.102;15.452;2023-07-20T13:47:23;3.22;;;2.30;;
21804;SDS011;11064;47.102;15.452;2023-07-20T13:49:49;2.47;;;2.17;;
21804;SDS011;11064;47.102;15.452;2023-07-20T13:52:15;2.58;;;2.20;;
21804;SDS011;11064;47.102;15.452;2023-07-20T13:54:40;2.88;;;2.33;;
21804;SDS011;11064;47.102;15.452;2023-07-20T13:57:06;4.10;;;2.40;;
21804;SDS011;11064;47.102;15.452;2023-07-20T13:59:32;3.33;;;2.50;;
21804;SDS011;11064;47.102;15.452;2023-07-20T14:01:58;4.35;;;2.50;;
21804;SDS011;11064;47.102;15.452;2023-07-20T14:04:23;3.30;;;2.58;;
21804;SDS011;11064;47.102;15.452;2023-07-20T14:06:49;3.97;;;2.83;;
21804;SDS011;11064;47.102;15.452;2023-07-20T14:09:15;4.80;;;2.97;;
21804;SDS011;11064;47.102;15.452;2023-07-20T14:11:41;4.30;;;3.00;;
21804;SDS011;11064;47.102;15.452;2023-07-20T14:14:07;4.00;;;2.90;;
21804;SDS011;11064;47.102;15.452;2023-07-20T14:16:32;4.35;;;2.90;;
21804;SDS011;11064;47.102;15.452;2023-07-20T14:18:58;4.78;;;3.10;;
21804;SDS011;11064;47.102;15.452;2023-07-20T14:21:24;5.38;;;2.78;;
21804;SDS011;11064;47.102;15.452;2023-07-20T14:23:50;4.05;;;3.10;;
21804;SDS011;11064;47.102;15.452;2023-07-20T14:26:20;3.28;;;2.80;;
21804;SDS011;11064;47.102;15.452;2023-07-20T14:28:46;3.42;;;2.83;;
21804;SDS011;11064;47.102;15.452;2023-07-20T14:31:13;3.22;;;2.63;;
21804;SDS011;11064;47.102;15.452;2023-07-20T14:33:39;3.95;;;2.80;;
21804;SDS011;11064;47.102;15.452;2023-07-20T14:36:05;3.75;;;2.92;;
21804;SDS011;11064;47.102;15.452;2023-07-20T14:38:31;7.25;;;3.10;;
21804;SDS011;11064;47.102;15.452;2023-07-20T14:40:59;3.10;;;2.80;;
21804;SDS011;11064;47.102;15.452;2023-07-20T14:43:25;4.13;;;3.22;;
21804;SDS011;11064;47.102;15.452;2023-07-20T14:45:50;4.15;;;3.20;;
21804;SDS011;11064;47.102;15.452;2023-07-20T14:48:16;4.95;;;3.00;;
21804;SDS011;11064;47.102;15.452;2023-07-20T14:50:42;5.50;;;3.00;;
21804;SDS011;11064;47.102;15.452;2023-07-20T14:53:13;3.78;;;2.78;;
21804;SDS011;11064;47.102;15.452;2023-07-20T14:55:39;6.47;;;3.05;;
21804;SDS011;11064;47.102;15.452;2023-07-20T14:58:05;3.97;;;3.08;;
21804;SDS011;11064;47.102;15.452;2023-07-20T15:00:31;3.75;;;2.97;;
21804;SDS011;11064;47.102;15.452;2023-07-20T15:02:56;3.85;;;2.97;;
21804;SDS011;11064;47.102;15.452;2023-07-20T15:05:22;3.70;;;2.70;;
21804;SDS011;11064;47.102;15.452;2023-07-20T15:07:49;4.07;;;2.90;;
21804;SDS011;11064;47.102;15.452;2023-07-20T15:10:15;5.70;;;2.88;;
21804;SDS011;11064;47.102;15.452;2023-07-20T15:12:41;8.82;;;3.00;;
21804;SDS011;11064;47.102;15.452;2023-07-20T15:15:08;4.47;;;2.80;;
21804;SDS011;11064;47.102;15.452;2023-07-20T15:17:36;3.10;;;2.65;;
21804;SDS011;11064;47.102;15.452;2023-07-20T15:20:03;4.97;;;2.60;;
21804;SDS011;11064;47.102;15.452;2023-07-20T15:22:31;3.38;;;2.60;;
21804;SDS011;11064;47.102;15.452;2023-07-20T15:24:57;3.55;;;2.92;;
21804;SDS011;11064;47.102;15.452;2023-07-20T15:27:23;7.22;;;3.00;;
21804;SDS011;11064;47.102;15.452;2023-07-20T15:29:49;4.68;;;2.95;;
21804;SDS011;11064;47.102;15.452;2023-07-20T15:32:15;4.75;;;2.80;;
21804;SDS011;11064;47.102;15.452;2023-07-20T15:34:44;5.10;;;3.00;;
21804;SDS011;11064;47.102;15.452;2023-07-20T15:37:11;3.00;;;2.60;;
21804;SDS011;11064;47.102;15.452;2023-07-20T15:39:37;4.15;;;2.90;;
21804;SDS011;11064;47.102;15.452;2023-07-20T15:42:03;3.33;;;2.78;;
21804;SDS011;11064;47.102;15.452;2023-07-20T15:44:30;3.95;;;2.70;;
21804;SDS011;11064;47.102;15.452;2023-07-20T15:46:55;5.35;;;3.05;;
21804;SDS011;11064;47.102;15.452;2023-07-20T15:49:21;4.43;;;3.03;;
21804;SDS011;11064;47.102;15.452;2023-07-20T15:51:49;4.10;;;2.85;;
21804;SDS011;11064;47.102;15.452;2023-07-20T15:54:15;4.25;;;2.90;;
21804;SDS011;11064;47.102;15.452;2023-07-20T15:56:41;3.28;;;2.65;;
21804;SDS011;11064;47.102;15.452;2023-07-20T15:59:13;3.53;;;3.08;;
21804;SDS011;11064;47.102;15.452;2023-07-20T16:01:40;5.35;;;3.08;;
21804;SDS011;11064;47.102;15.452;2023-07-20T16:04:07;4.07;;;2.85;;
21804;SDS011;11064;47.102;15.452;2023-07-20T16:06:34;3.50;;;2.83;;
21804;SDS011;11064;47.102;15.452;2023-07-20T16:09:01;3.50;;;2.58;;
21804;SDS011;11064;47.102;15.452;2023-07-20T16:11:29;4.43;;;2.90;;
21804;SDS011;11064;47.102;15.452;2023-07-20T16:13:59;5.72;;;3.28;;
21804;SDS011;11064;47.102;15.452;2023-07-20T16:16:25;4.43;;;3.10;;
21804;SDS011;11064;47.102;15.452;2023-07-20T16:18:51;4.55;;;3.50;;
21804;SDS011;11064;47.102;15.452;2023-07-20T16:21:19;7.13;;;3.40;;
21804;SDS011;11064;47.102;15.452;2023-07-20T16:23:46;3.70;;;3.10;;
21804;SDS011;11064;47.102;15.452;2023-07-20T16:26:12;3.75;;;3.08;;
21804;SDS011;11064;47.102;15.452;2023-07-20T16:28:38;7.35;;;3.35;;
21804;SDS011;11064;47.102;15.452;2023-07-20T16:31:11;5.03;;;3.30;;
21804;SDS011;11064;47.102;15.452;2023-07-20T16:33:38;5.45;;;3.40;;
21804;SDS011;11064;47.102;15.452;2023-07-20T16:36:11;6.72;;;3.35;;
21804;SDS011;11064;47.102;15.452;2023-07-20T16:38:38;3.20;;;2.88;;
21804;SDS011;11064;47.102;15.452;2023-07-20T16:41:05;5.60;;;3.53;;
21804;SDS011;11064;47.102;15.452;2023-07-20T16:43:36;5.13;;;3.05;;
21804;SDS011;11064;47.102;15.452;2023-07-20T16:46:03;4.93;;;3.47;;
21804;SDS011;11064;47.102;15.452;2023-07-20T16:48:30;6.95;;;3.50;;
21804;SDS011;11064;47.102;15.452;2023-07-20T16:50:57;6.80;;;3.65;;
21804;SDS011;11064;47.102;15.452;2023-07-20T16:53:24;5.45;;;3.58;;
21804;SDS011;11064;47.102;15.452;2023-07-20T16:55:51;5.35;;;3.70;;
21804;SDS011;11064;47.102;15.452;2023-07-20T16:58:21;7.63;;;3.70;;
21804;SDS011;11064;47.102;15.452;2023-07-20T17:00:49;5.70;;;3.35;;
21804;SDS011;11064;47.102;15.452;2023-07-20T17:03:17;4.95;;;3.50;;
21804;SDS011;11064;47.102;15.452;2023-07-20T17:05:43;5.30;;;3.50;;
21804;SDS011;11064;47.102;15.452;2023-07-20T17:08:10;4.10;;;3.20;;
21804;SDS011;11064;47.102;15.452;2023-07-20T17:10:36;4.47;;;3.70;;
21804;SDS011;11064;47.102;15.452;2023-07-20T17:13:03;5.80;;;3.17;;
21804;SDS011;11064;47.102;15.452;2023-07-20T17:15:33;5.93;;;3.55;;
21804;SDS011;11064;47.102;15.452;2023-07-20T17:17:59;7.78;;;3.55;;
21804;SDS011;11064;47.102;15.452;2023-07-20T17:20:25;5.80;;;3.63;;
21804;SDS011;11064;47.102;15.452;2023-07-20T17:22:51;6.90;;;3.80;;
21804;SDS011;11064;47.102;15.452;2023-07-20T17:25:17;5.10;;;3.58;;
21804;SDS011;11064;47.102;15.452;2023-07-20T17:27:42;7.22;;;4.07;;
21804;SDS011;11064;47.102;15.452;2023-07-20T17:30:08;5.70;;;4.00;;
21804;SDS011;11064;47.102;15.452;2023-07-20T17:32:35;5.80;;;4.05;;
21804;SDS011;11064;47.102;15.452;2023-07-20T17:35:01;5.85;;;4.28;;
21804;SDS011;11064;47.102;15.452;2023-07-20T17:37:28;6.05;;;4.20;;
21804;SDS011;11064;47.102;15.452;2023-07-20T17:39:54;6.10;;;4.30;;
21804;SDS011;11064;47.102;15.452;2023-07-20T17:42:20;5.72;;;4.00;;
21804;SDS011;11064;47.102;15.452;2023-07-20T17:44:46;5.72;;;4.05;;
21804;SDS011;11064;47.102;15.452;2023-07-20T17:47:12;6.90;;;3.80;;
21804;SDS011;11064;47.102;15.452;2023-07-20T17:49:39;5.97;;;4.10;;
21804;SDS011;11064;47.102;15.452;2023-07-20T17:52:06;5.10;;;3.95;;
21804;SDS011;11064;47.102;15.452;2023-07-20T17:54:32;6.13;;;4.35;;
21804;SDS011;11064;47.102;15.452;2023-07-20T17:56:58;5.60;;;4.10;;
21804;SDS011;11064;47.102;15.452;2023-07-20T17:59:24;7.15;;;4.65;;
21804;SDS011;11064;47.102;15.452;2023-07-20T18:01:51;6.38;;;4.40;;
21804;SDS011;11064;47.102;15.452;2023-07-20T18:04:17;5.82;;;4.60;;
21804;SDS011;11064;47.102;15.452;2023-07-20T18:06:43;6.63;;;4.70;;
21804;SDS011;11064;47.102;15.452;2023-07-20T18:09:09;7.18;;;4.85;;
21804;SDS011;11064;47.102;15.452;2023-07-20T18:11:35;6.18;;;4.70;;
21804;SDS011;11064;47.102;15.452;2023-07-20T18:14:01;11.55;;;4.63;;
21804;SDS011;11064;47.102;15.452;2023-07-20T18:16:28;6.22;;;4.85;;
21804;SDS011;11064;47.102;15.452;2023-07-20T18:18:55;7.20;;;4.55;;
21804;SDS011;11064;47.102;15.452;2023-07-20T18:21:21;9.43;;;5.05;;
21804;SDS011;11064;47.102;15.452;2023-07-20T18:23:47;8.88;;;4.78;;
21804;SDS011;11064;47.102;15.452;2023-07-20T18:26:16;7.63;;;4.60;;
21804;SDS011;11064;47.102;15.452;2023-07-20T18:28:44;8.38;;;4.65;;
21804;SDS011;11064;47.102;15.452;2023-07-20T18:31:10;5.72;;;4.80;;
21804;SDS011;11064;47.102;15.452;2023-07-20T18:33:36;6.30;;;5.00;;
21804;SDS011;11064;47.102;15.452;2023-07-20T18:36:04;5.82;;;4.70;;
21804;SDS011;11064;47.102;15.452;2023-07-20T18:38:32;6.30;;;4.90;;
21804;SDS011;11064;47.102;15.452;2023-07-20T18:40:58;6.18;;;5.15;;
21804;SDS011;11064;47.102;15.452;2023-07-20T18:43:25;7.00;;;4.60;;
21804;SDS011;11064;47.102;15.452;2023-07-20T18:45:54;6.80;;;4.85;;
21804;SDS011;11064;47.102;15.452;2023-07-20T18:48:20;8.30;;;5.20;;
21804;SDS011;11064;47.102;15.452;2023-07-20T18:50:47;6.15;;;5.03;;